createdAt,value
2019-06-07T00:00:39.421Z,0.00
2019-06-07T00:01:23.657Z,0.00
2019-06-07T00:02:22.648Z,0.00
2019-06-07T00:03:29.676Z,0.00
2019-06-07T00:04:23.626Z,0.00
2019-06-07T00:05:22.628Z,0.00
2019-06-07T00:06:25.362Z,0.00
2019-06-07T00:07:22.607Z,0.00
2019-06-07T00:08:27.934Z,0.00
2019-06-07T00:09:23.572Z,0.00
2019-06-07T00:10:36.189Z,0.00
2019-06-07T00:11:23.547Z,0.00
2019-06-07T00:12:22.537Z,0.00
2019-06-07T00:13:22.544Z,0.00
2019-06-07T00:14:22.553Z,0.00
2019-06-07T00:15:28.791Z,0.00
2019-06-07T00:16:23.647Z,0.00
2019-06-07T00:17:22.484Z,0.00
2019-06-07T00:18:25.962Z,0.00
2019-06-07T00:19:22.460Z,0.00
2019-06-07T00:20:23.581Z,0.00
2019-06-07T00:22:12.147Z,0.00
2019-06-07T00:22:32.619Z,0.00
2019-06-07T00:23:23.432Z,0.00
2019-06-07T00:24:22.408Z,0.00
2019-06-07T00:25:24.560Z,0.00
2019-06-07T00:26:22.388Z,0.00
2019-06-07T00:27:22.796Z,0.00
2019-06-07T00:28:22.412Z,0.00
2019-06-07T00:29:22.386Z,0.00
2019-06-07T00:30:41.094Z,0.00
2019-06-07T00:31:24.740Z,0.00
2019-06-07T00:32:22.486Z,0.00
2019-06-07T00:33:24.777Z,0.00
2019-06-07T00:34:23.204Z,0.00
2019-06-07T00:35:22.559Z,0.00
2019-06-07T00:36:23.294Z,0.00
2019-06-07T00:37:25.250Z,0.00
2019-06-07T00:38:22.257Z,0.00
2019-06-07T00:39:25.651Z,0.00
2019-06-07T00:40:31.441Z,0.00
2019-06-07T00:41:23.224Z,0.00
2019-06-07T00:42:24.234Z,0.00
2019-06-07T00:43:27.937Z,0.00
2019-06-07T00:44:23.658Z,0.00
2019-06-07T00:45:24.474Z,0.00
2019-06-07T00:46:25.286Z,0.00
2019-06-07T00:47:23.687Z,0.00
2019-06-07T00:48:31.778Z,0.00
2019-06-07T00:49:40.005Z,0.00
2019-06-07T00:50:24.332Z,0.00
2019-06-07T00:51:24.078Z,0.00
2019-06-07T00:53:11.645Z,0.00
2019-06-07T00:53:31.498Z,0.00
2019-06-07T00:54:24.730Z,0.00
2019-06-07T00:55:27.099Z,0.00
2019-06-07T00:56:23.535Z,0.00
2019-06-07T00:57:24.135Z,0.00
2019-06-07T00:58:27.461Z,0.00
2019-06-07T00:59:28.838Z,0.00
2019-06-07T01:00:25.486Z,0.00
2019-06-07T01:01:24.844Z,0.00
2019-06-07T01:02:26.007Z,0.00
2019-06-07T01:03:25.712Z,0.00
2019-06-07T01:04:23.679Z,0.00
2019-06-07T01:05:26.182Z,0.00
2019-06-07T01:06:24.813Z,0.00
2019-06-07T01:07:24.294Z,0.00
2019-06-07T01:08:27.550Z,0.00
2019-06-07T01:09:25.288Z,0.00
2019-06-07T01:10:50.170Z,0.00
2019-06-07T01:11:25.722Z,0.00
2019-06-07T01:12:23.883Z,0.00
2019-06-07T01:13:24.178Z,0.00
2019-06-07T01:14:24.526Z,0.00
2019-06-07T01:15:28.786Z,0.00
2019-06-07T01:16:25.721Z,0.00
2019-06-07T01:17:32.974Z,0.00
2019-06-07T01:18:37.321Z,0.00
2019-06-07T01:19:26.481Z,0.00
2019-06-07T01:20:24.179Z,0.00
2019-06-07T01:21:26.444Z,0.00
2019-06-07T01:22:27.108Z,0.00
2019-06-07T01:23:59.773Z,0.00
2019-06-07T01:24:25.672Z,0.00
2019-06-07T01:25:22.761Z,0.00
2019-06-07T01:26:24.163Z,0.00
2019-06-07T01:27:25.441Z,0.00
2019-06-07T01:28:24.842Z,0.00
2019-06-07T01:29:25.008Z,0.00
2019-06-07T01:30:23.251Z,0.00
2019-06-07T01:31:24.852Z,0.00
2019-06-07T01:32:24.676Z,0.00
2019-06-07T01:33:25.705Z,0.00
2019-06-07T01:34:25.706Z,0.00
2019-06-07T01:35:22.112Z,0.00
2019-06-07T01:36:24.375Z,0.00
2019-06-07T01:37:24.899Z,0.00
2019-06-07T01:38:24.486Z,0.00
2019-06-07T01:39:24.074Z,0.00
2019-06-07T01:40:27.758Z,0.00
2019-06-07T01:41:25.349Z,0.00
2019-06-07T01:42:24.571Z,0.00
2019-06-07T01:43:26.168Z,0.00
2019-06-07T01:44:27.306Z,0.00
2019-06-07T01:45:23.652Z,0.00
2019-06-07T01:46:25.353Z,0.00
2019-06-07T01:47:25.575Z,0.00
2019-06-07T01:48:25.411Z,0.00
2019-06-07T01:49:24.765Z,0.00
2019-06-07T01:50:24.752Z,0.00
2019-06-07T01:51:24.280Z,0.00
2019-06-07T01:52:23.511Z,0.00
2019-06-07T01:53:23.717Z,0.00
2019-06-07T01:55:23.956Z,0.00
2019-06-07T01:56:22.578Z,0.00
2019-06-07T01:57:43.189Z,0.00
2019-06-07T01:58:26.112Z,0.00
2019-06-07T01:59:23.142Z,0.00
2019-06-07T02:00:23.222Z,0.00
2019-06-07T02:01:23.320Z,0.00
2019-06-07T02:02:22.837Z,0.00
2019-06-07T02:03:25.847Z,0.00
2019-06-07T02:04:23.379Z,0.00
2019-06-07T02:05:23.179Z,0.00
2019-06-07T02:06:23.764Z,0.00
2019-06-07T02:07:26.909Z,0.00
2019-06-07T02:08:24.502Z,0.00
2019-06-07T02:09:23.368Z,0.00
2019-06-07T02:10:25.744Z,0.00
2019-06-07T02:11:23.786Z,0.00
2019-06-07T02:12:28.187Z,0.00
2019-06-07T02:13:23.745Z,0.00
2019-06-07T02:14:23.411Z,0.00
2019-06-07T02:15:23.153Z,0.00
2019-06-07T02:16:21.806Z,0.00
2019-06-07T02:17:25.209Z,0.00
2019-06-07T02:18:23.804Z,0.00
2019-06-07T02:19:22.034Z,0.00
2019-06-07T02:20:23.863Z,0.00
2019-06-07T02:21:24.665Z,0.00
2019-06-07T02:22:23.130Z,0.00
2019-06-07T02:23:23.238Z,0.00
2019-06-07T02:24:24.706Z,0.00
2019-06-07T02:25:38.297Z,0.00
2019-06-07T02:26:22.887Z,0.00
2019-06-07T02:27:24.220Z,0.00
2019-06-07T02:28:30.957Z,0.00
2019-06-07T02:29:22.910Z,0.00
2019-06-07T02:30:43.649Z,0.00
2019-06-07T02:31:24.382Z,0.00
2019-06-07T02:32:24.252Z,0.00
2019-06-07T02:33:25.836Z,0.00
2019-06-07T02:34:24.052Z,0.00
2019-06-07T02:35:25.606Z,0.00
2019-06-07T02:36:25.704Z,0.00
2019-06-07T02:37:24.200Z,0.00
2019-06-07T02:38:23.128Z,0.00
2019-06-07T02:39:23.945Z,0.00
2019-06-07T02:40:22.067Z,0.00
2019-06-07T02:41:25.815Z,0.00
2019-06-07T02:42:26.165Z,0.00
2019-06-07T02:43:22.152Z,0.00
2019-06-07T02:44:23.144Z,0.00
2019-06-07T02:45:24.142Z,0.00
2019-06-07T02:46:27.722Z,0.00
2019-06-07T02:47:22.760Z,0.00
2019-06-07T02:48:20.855Z,0.00
2019-06-07T02:49:20.872Z,0.00
2019-06-07T02:50:20.843Z,0.00
2019-06-07T02:51:20.832Z,4.00
2019-06-07T02:52:20.806Z,4.00
2019-06-07T02:53:20.800Z,4.00
2019-06-07T02:54:20.791Z,4.00
2019-06-07T02:55:20.794Z,4.00
2019-06-07T02:56:39.841Z,4.00
2019-06-07T02:57:21.752Z,4.00
2019-06-07T02:58:20.744Z,4.00
2019-06-07T02:59:45.643Z,8.00
2019-06-07T03:00:45.902Z,8.00
2019-06-07T03:01:21.763Z,8.00
2019-06-07T03:02:20.702Z,8.00
2019-06-07T03:03:22.278Z,12.00
2019-06-07T03:04:20.677Z,12.00
2019-06-07T03:05:20.669Z,16.00
2019-06-07T03:06:20.676Z,16.00
2019-06-07T03:07:20.646Z,20.00
2019-06-07T03:08:20.671Z,24.00
2019-06-07T03:09:20.627Z,28.00
2019-06-07T03:10:20.612Z,28.00
2019-06-07T03:11:20.614Z,36.00
2019-06-07T03:12:20.601Z,36.00
2019-06-07T03:13:20.581Z,44.00
2019-06-07T03:14:20.593Z,48.00
2019-06-07T03:15:32.895Z,56.00
2019-06-07T03:16:21.563Z,64.00
2019-06-07T03:17:20.542Z,72.00
2019-06-07T03:18:20.526Z,80.00
2019-06-07T03:19:20.531Z,88.00
2019-06-07T03:20:20.520Z,100.00
2019-06-07T03:21:20.529Z,112.00
2019-06-07T03:22:20.483Z,124.00
2019-06-07T03:23:20.475Z,136.00
2019-06-07T03:24:20.463Z,152.00
2019-06-07T03:25:20.452Z,164.00
2019-06-07T03:26:20.453Z,184.00
2019-06-07T03:27:34.888Z,200.00
2019-06-07T03:28:21.417Z,216.00
2019-06-07T03:29:20.411Z,236.00
2019-06-07T03:30:38.826Z,260.00
2019-06-07T03:31:21.413Z,280.00
2019-06-07T03:32:20.378Z,300.00
2019-06-07T03:33:20.404Z,328.00
2019-06-07T03:34:20.362Z,352.00
2019-06-07T03:35:20.343Z,380.00
2019-06-07T03:36:25.459Z,404.00
2019-06-07T03:37:21.320Z,436.00
2019-06-07T03:38:20.357Z,464.00
2019-06-07T03:39:20.301Z,496.00
2019-06-07T03:40:20.320Z,532.00
2019-06-07T03:41:20.307Z,564.00
2019-06-07T03:42:20.275Z,604.00
2019-06-07T03:43:20.258Z,640.00
2019-06-07T03:44:20.254Z,676.00
2019-06-07T03:45:20.245Z,716.00
2019-06-07T03:46:20.239Z,756.00
2019-06-07T03:47:20.308Z,800.00
2019-06-07T03:48:20.253Z,840.00
2019-06-07T03:49:20.196Z,884.00
2019-06-07T03:50:20.183Z,932.00
2019-06-07T03:51:25.152Z,976.00
2019-06-07T03:52:21.161Z,1024.00
2019-06-07T03:53:20.157Z,1072.00
2019-06-07T03:54:20.165Z,1112.00
2019-06-07T03:55:20.167Z,1160.00
2019-06-07T03:56:20.119Z,1208.00
2019-06-07T03:57:20.120Z,1252.00
2019-06-07T03:58:47.981Z,1300.00
2019-06-07T03:59:21.090Z,1344.00
2019-06-07T04:00:20.079Z,1392.00
2019-06-07T04:01:20.122Z,1432.00
2019-06-07T04:02:20.070Z,1476.00
2019-06-07T04:03:33.296Z,1516.00
2019-06-07T04:04:21.036Z,1556.00
2019-06-07T04:05:20.049Z,1604.00
2019-06-07T04:06:20.016Z,1648.00
2019-06-07T04:07:20.043Z,1704.00
2019-06-07T04:08:20.036Z,1756.00
2019-06-07T04:09:19.977Z,1812.00
2019-06-07T04:10:41.210Z,1852.00
2019-06-07T04:11:20.958Z,1900.00
2019-06-07T04:12:19.968Z,1952.00
2019-06-07T04:13:19.938Z,2004.00
2019-06-07T04:14:19.964Z,2052.00
2019-06-07T04:15:19.917Z,2100.00
2019-06-07T04:16:19.904Z,2140.00
2019-06-07T04:17:19.917Z,2184.00
2019-06-07T04:18:19.887Z,2236.00
2019-06-07T04:19:19.874Z,2284.00
2019-06-07T04:20:19.860Z,2332.00
2019-06-07T04:21:19.873Z,2384.00
2019-06-07T04:22:19.967Z,2432.00
2019-06-07T04:23:29.866Z,2472.00
2019-06-07T04:24:20.818Z,2520.00
2019-06-07T04:25:19.809Z,2564.00
2019-06-07T04:26:19.795Z,2608.00
2019-06-07T04:27:19.799Z,2656.00
2019-06-07T04:28:19.777Z,2696.00
2019-06-07T04:29:56.805Z,2744.00
2019-06-07T04:30:20.758Z,2776.00
2019-06-07T04:31:19.740Z,2796.00
2019-06-07T04:32:19.740Z,2832.00
2019-06-07T04:33:19.720Z,2868.00
2019-06-07T04:34:19.720Z,2904.00
2019-06-07T04:35:19.697Z,2940.00
2019-06-07T04:36:38.938Z,2972.00
2019-06-07T04:37:20.708Z,3016.00
2019-06-07T04:38:19.686Z,3056.00
2019-06-07T04:39:19.657Z,3100.00
2019-06-07T04:40:19.644Z,3148.00
2019-06-07T04:41:19.642Z,3192.00
2019-06-07T04:42:19.672Z,3252.00
2019-06-07T04:43:19.652Z,3304.00
2019-06-07T04:44:19.598Z,3360.00
2019-06-07T04:45:33.734Z,3416.00
2019-06-07T04:46:20.580Z,3476.00
2019-06-07T04:47:19.578Z,3536.00
2019-06-07T04:48:19.555Z,3588.00
2019-06-07T04:49:19.567Z,3644.00
2019-06-07T04:50:19.535Z,3704.00
2019-06-07T04:51:19.552Z,3768.00
2019-06-07T04:52:19.524Z,3828.00
2019-06-07T04:53:19.504Z,3888.00
2019-06-07T04:54:19.492Z,3940.00
2019-06-07T04:55:19.500Z,3996.00
2019-06-07T04:56:19.490Z,4056.00
2019-06-07T04:57:19.461Z,4160.00
2019-06-07T04:58:19.463Z,4728.00
2019-06-07T05:00:00.747Z,5332.00
2019-06-07T05:00:47.194Z,5404.00
2019-06-07T05:01:27.162Z,5200.00
2019-06-07T05:02:20.416Z,4916.00
2019-06-07T05:03:19.455Z,4820.00
2019-06-07T05:04:19.384Z,4900.00
2019-06-07T05:05:19.372Z,4920.00
2019-06-07T05:06:19.368Z,4996.00
2019-06-07T05:07:19.350Z,5096.00
2019-06-07T05:08:27.898Z,4984.00
2019-06-07T05:09:20.334Z,4900.00
2019-06-07T05:10:19.414Z,5068.00
2019-06-07T05:11:19.334Z,5244.00
2019-06-07T05:12:19.295Z,5444.00
2019-06-07T05:13:19.320Z,5400.00
2019-06-07T05:14:19.285Z,5188.00
2019-06-07T05:15:19.363Z,5320.00
2019-06-07T05:16:19.275Z,5652.00
2019-06-07T05:17:19.260Z,5940.00
2019-06-07T05:18:19.350Z,5896.00
2019-06-07T05:19:19.281Z,5688.00
2019-06-07T05:20:19.219Z,5664.00
2019-06-07T05:21:19.237Z,5832.00
2019-06-07T05:22:19.187Z,5892.00
2019-06-07T05:24:00.165Z,5608.00
2019-06-07T05:24:20.187Z,5300.00
2019-06-07T05:25:19.183Z,5512.00
2019-06-07T05:26:19.144Z,6452.00
2019-06-07T05:27:19.134Z,7444.00
2019-06-07T05:28:19.133Z,7312.00
2019-06-07T05:29:19.170Z,6348.00
2019-06-07T05:30:57.700Z,5588.00
2019-06-07T05:31:20.094Z,5516.00
2019-06-07T05:32:19.085Z,5772.00
2019-06-07T05:33:19.116Z,6064.00
2019-06-07T05:34:19.057Z,6692.00
2019-06-07T05:35:19.054Z,7124.00
2019-06-07T05:36:19.079Z,7656.00
2019-06-07T05:37:19.048Z,8724.00
2019-06-07T05:38:19.056Z,9292.00
2019-06-07T05:39:19.002Z,9528.00
2019-06-07T05:40:19.021Z,9396.00
2019-06-07T05:41:19.009Z,9144.00
2019-06-07T05:42:18.971Z,9092.00
2019-06-07T05:43:18.972Z,9340.00
2019-06-07T05:44:18.971Z,10224.00
2019-06-07T05:45:18.955Z,10804.00
2019-06-07T05:46:18.950Z,10768.00
2019-06-07T05:47:18.977Z,11036.00
2019-06-07T05:48:18.933Z,11148.00
2019-06-07T05:49:18.906Z,11296.00
2019-06-07T05:50:39.299Z,11392.00
2019-06-07T05:51:19.886Z,11220.00
2019-06-07T05:52:18.872Z,11136.00
2019-06-07T05:53:18.879Z,11492.00
2019-06-07T05:54:18.891Z,11052.00
2019-06-07T05:55:18.848Z,9608.00
2019-06-07T05:56:18.907Z,8064.00
2019-06-07T05:57:18.825Z,8056.00
2019-06-07T05:58:19.075Z,9792.00
2019-06-07T05:59:18.799Z,11516.00
2019-06-07T06:00:18.783Z,11864.00
2019-06-07T06:01:42.943Z,12372.00
2019-06-07T06:02:24.596Z,12584.00
2019-06-07T06:03:19.803Z,11916.00
2019-06-07T06:04:18.733Z,13812.00
2019-06-07T06:05:33.689Z,16000.00
2019-06-07T06:06:19.750Z,16096.00
2019-06-07T06:07:18.713Z,17888.00
2019-06-07T06:08:18.829Z,18528.00
2019-06-07T06:09:18.704Z,18848.00
2019-06-07T06:10:18.757Z,14576.00
2019-06-07T06:11:18.664Z,12180.00
2019-06-07T06:12:33.944Z,12648.00
2019-06-07T06:13:19.636Z,10376.00
2019-06-07T06:14:18.642Z,9292.00
2019-06-07T06:15:18.621Z,9120.00
2019-06-07T06:16:18.597Z,8620.00
2019-06-07T06:17:18.613Z,7704.00
2019-06-07T06:18:18.601Z,8032.00
2019-06-07T06:19:18.596Z,7796.00
2019-06-07T06:20:18.580Z,7800.00
2019-06-07T06:21:20.224Z,7728.00
2019-06-07T06:22:18.547Z,7732.00
2019-06-07T06:23:18.586Z,7748.00
2019-06-07T06:24:18.563Z,7720.00
2019-06-07T06:25:34.510Z,7676.00
2019-06-07T06:26:19.502Z,7724.00
2019-06-07T06:27:55.616Z,7788.00
2019-06-07T06:28:19.489Z,7828.00
2019-06-07T06:29:18.487Z,7496.00
2019-06-07T06:30:18.457Z,7256.00
2019-06-07T06:31:18.459Z,8008.00
2019-06-07T06:33:32.939Z,8128.00
2019-06-07T06:34:19.428Z,8144.00
2019-06-07T06:35:18.429Z,8160.00
2019-06-07T06:36:18.509Z,8192.00
2019-06-07T06:37:18.378Z,8244.00
2019-06-07T06:38:18.377Z,8480.00
2019-06-07T06:39:18.443Z,8948.00
2019-06-07T06:40:18.346Z,10512.00
2019-06-07T06:41:18.335Z,17056.00
2019-06-07T06:42:18.341Z,24192.00
2019-06-07T06:43:18.324Z,25504.00
2019-06-07T06:44:18.308Z,21920.00
2019-06-07T06:45:18.293Z,13868.00
2019-06-07T06:46:37.519Z,11456.00
2019-06-07T06:47:19.263Z,18432.00
2019-06-07T06:48:18.275Z,21280.00
2019-06-07T06:49:18.674Z,15456.00
2019-06-07T06:50:18.237Z,21184.00
2019-06-07T06:51:18.234Z,31936.00
2019-06-07T06:52:18.285Z,35776.00
2019-06-07T06:53:18.221Z,29984.00
2019-06-07T06:54:39.305Z,27840.00
2019-06-07T06:55:19.226Z,17248.00
2019-06-07T06:56:18.210Z,10456.00
2019-06-07T06:57:20.305Z,21120.00
2019-06-07T06:58:18.169Z,32992.00
2019-06-07T07:00:19.129Z,37696.00
2019-06-07T07:01:18.127Z,33472.00
2019-06-07T07:02:18.092Z,37280.00
2019-06-07T07:04:19.142Z,42656.00
2019-06-07T07:05:18.077Z,39776.00
2019-06-07T07:06:26.057Z,35552.00
2019-06-07T07:07:19.038Z,38368.00
2019-06-07T07:08:18.049Z,38656.00
2019-06-07T07:09:18.041Z,37568.00
2019-06-07T07:10:18.070Z,39584.00
2019-06-07T07:11:18.028Z,42016.00
2019-06-07T07:12:17.998Z,35936.00
2019-06-07T07:13:17.987Z,18304.00
2019-06-07T07:14:17.976Z,17504.00
2019-06-07T07:15:17.973Z,31968.00
2019-06-07T07:16:17.938Z,41248.00
2019-06-07T07:17:17.932Z,43168.00
2019-06-07T07:18:17.945Z,44448.00
2019-06-07T07:19:17.998Z,43360.00
2019-06-07T07:20:17.927Z,41984.00
2019-06-07T07:21:17.962Z,43040.00
2019-06-07T07:22:17.936Z,36992.00
2019-06-07T07:23:17.887Z,25472.00
2019-06-07T07:24:21.799Z,14380.00
2019-06-07T07:25:17.856Z,10540.00
2019-06-07T07:26:17.873Z,10224.00
2019-06-07T07:27:17.859Z,10076.00
2019-06-07T07:28:17.814Z,9988.00
2019-06-07T07:29:17.809Z,9912.00
2019-06-07T07:30:36.143Z,9848.00
2019-06-07T07:31:18.797Z,9664.00
2019-06-07T07:32:17.817Z,9780.00
2019-06-07T07:33:17.791Z,9724.00
2019-06-07T07:34:33.999Z,9692.00
2019-06-07T07:35:18.768Z,9612.00
2019-06-07T07:36:37.587Z,9824.00
2019-06-07T07:37:18.755Z,9828.00
2019-06-07T07:38:17.730Z,9768.00
2019-06-07T07:39:17.695Z,9716.00
2019-06-07T07:41:18.669Z,9968.00
2019-06-07T07:42:21.572Z,9836.00
2019-06-07T07:43:17.724Z,9712.00
2019-06-07T07:44:17.652Z,9480.00
2019-06-07T07:45:17.639Z,9488.00
2019-06-07T07:46:29.189Z,9152.00
2019-06-07T07:47:18.611Z,9580.00
2019-06-07T07:48:18.638Z,9712.00
2019-06-07T07:49:17.591Z,9692.00
2019-06-07T07:50:17.591Z,9692.00
2019-06-07T07:51:17.566Z,9668.00
2019-06-07T07:52:17.578Z,9636.00
2019-06-07T07:53:17.644Z,9488.00
2019-06-07T07:54:17.538Z,9240.00
2019-06-07T07:55:17.620Z,9396.00
2019-06-07T07:56:17.522Z,9384.00
2019-06-07T07:57:17.497Z,9400.00
2019-06-07T07:58:17.526Z,9440.00
2019-06-07T07:59:17.499Z,9468.00
2019-06-07T08:00:49.263Z,9524.00
2019-06-07T08:01:18.464Z,9548.00
2019-06-07T08:02:17.439Z,9552.00
2019-06-07T08:03:17.486Z,9596.00
2019-06-07T08:04:17.473Z,9644.00
2019-06-07T08:05:25.712Z,9680.00
2019-06-07T08:06:18.444Z,9752.00
2019-06-07T08:07:17.460Z,9820.00
2019-06-07T08:08:17.424Z,9868.00
2019-06-07T08:09:17.373Z,9928.00
2019-06-07T08:10:17.399Z,9964.00
2019-06-07T08:11:17.353Z,10032.00
2019-06-07T08:12:17.336Z,10048.00
2019-06-07T08:13:25.444Z,10036.00
2019-06-07T08:14:18.301Z,10032.00
2019-06-07T08:15:17.305Z,10020.00
2019-06-07T08:16:18.843Z,10068.00
2019-06-07T08:17:17.305Z,10128.00
2019-06-07T08:18:17.275Z,10144.00
2019-06-07T08:19:17.258Z,10144.00
2019-06-07T08:20:17.259Z,10160.00
2019-06-07T08:21:25.738Z,10112.00
2019-06-07T08:22:18.222Z,10184.00
2019-06-07T08:23:17.206Z,10196.00
2019-06-07T08:24:17.200Z,10236.00
2019-06-07T08:25:17.194Z,10272.00
2019-06-07T08:26:17.174Z,10348.00
2019-06-07T08:27:25.803Z,10368.00
2019-06-07T08:28:18.151Z,10456.00
2019-06-07T08:29:17.140Z,10496.00
2019-06-07T08:30:47.366Z,10520.00
2019-06-07T08:31:18.150Z,10480.00
2019-06-07T08:32:17.138Z,10476.00
2019-06-07T08:33:26.101Z,10496.00
2019-06-07T08:34:18.100Z,10596.00
2019-06-07T08:36:02.464Z,10744.00
2019-06-07T08:36:25.183Z,10892.00
2019-06-07T08:37:18.059Z,10980.00
2019-06-07T08:38:29.873Z,11112.00
2019-06-07T08:39:18.069Z,11316.00
2019-06-07T08:40:17.056Z,11300.00
2019-06-07T08:41:17.024Z,11788.00
2019-06-07T08:42:21.942Z,13844.00
2019-06-07T08:43:21.038Z,18848.00
2019-06-07T08:44:23.676Z,66496.00
2019-06-07T08:45:17.970Z,57792.00
2019-06-07T08:46:16.970Z,69248.00
2019-06-07T08:47:20.899Z,66432.00
2019-06-07T08:48:27.505Z,66688.00
2019-06-07T08:49:17.923Z,66112.00
2019-06-07T08:50:16.934Z,49216.00
2019-06-07T08:51:16.923Z,52128.00
2019-06-07T08:52:16.909Z,46848.00
2019-06-07T08:53:16.888Z,35168.00
2019-06-07T08:54:22.966Z,30144.00
2019-06-07T08:55:17.868Z,14520.00
2019-06-07T08:56:16.874Z,17568.00
2019-06-07T08:57:21.352Z,18912.00
2019-06-07T08:58:17.888Z,15024.00
2019-06-07T08:59:16.822Z,13324.00
2019-06-07T09:00:42.945Z,18880.00
2019-06-07T09:01:17.806Z,36448.00
2019-06-07T09:02:23.619Z,52448.00
2019-06-07T09:03:17.799Z,55552.00
2019-06-07T09:04:16.763Z,52544.00
2019-06-07T09:05:16.765Z,53056.00
2019-06-07T09:07:01.192Z,50912.00
2019-06-07T09:07:19.794Z,43904.00
2019-06-07T09:08:30.389Z,36064.00
2019-06-07T09:09:17.729Z,31456.00
2019-06-07T09:10:16.723Z,26304.00
2019-06-07T09:11:16.697Z,18848.00
2019-06-07T09:12:16.678Z,22304.00
2019-06-07T09:13:16.665Z,30016.00
2019-06-07T09:14:16.669Z,41152.00
2019-06-07T09:15:23.616Z,58848.00
2019-06-07T09:16:17.666Z,59616.00
2019-06-07T09:17:16.643Z,33024.00
2019-06-07T09:18:40.903Z,32000.00
2019-06-07T09:19:17.605Z,65536.00
2019-06-07T09:20:35.554Z,77696.00
2019-06-07T09:21:17.615Z,80096.00
2019-06-07T09:22:16.576Z,84800.00
2019-06-07T09:23:17.770Z,79968.00
2019-06-07T09:24:16.551Z,80768.00
2019-06-07T09:25:20.882Z,87648.00
2019-06-07T09:26:18.916Z,81920.00
2019-06-07T09:27:16.540Z,78016.00
2019-06-07T09:28:20.282Z,78816.00
2019-06-07T09:29:16.524Z,79552.00
2019-06-07T09:30:19.014Z,84288.00
2019-06-07T09:31:16.486Z,64032.00
2019-06-07T09:32:18.623Z,29920.00
2019-06-07T09:33:16.455Z,50816.00
2019-06-07T09:34:16.451Z,78976.00
2019-06-07T09:35:17.423Z,80064.00
2019-06-07T09:36:16.437Z,81856.00
2019-06-07T09:38:03.693Z,79104.00
2019-06-07T09:38:25.814Z,58976.00
2019-06-07T09:39:17.386Z,86784.00
2019-06-07T09:40:27.112Z,87488.00
2019-06-07T09:41:17.380Z,90400.00
2019-06-07T09:42:16.367Z,88448.00
2019-06-07T09:43:59.815Z,86976.00
2019-06-07T09:44:24.675Z,81952.00
2019-06-07T09:45:17.326Z,42592.00
2019-06-07T09:46:16.927Z,30944.00
2019-06-07T09:47:31.183Z,60352.00
2019-06-07T09:49:01.329Z,84288.00
2019-06-07T09:49:30.706Z,88928.00
2019-06-07T09:50:17.275Z,88128.00
2019-06-07T09:51:19.720Z,88480.00
2019-06-07T09:52:16.254Z,88000.00
2019-06-07T09:53:22.493Z,84672.00
2019-06-07T09:55:02.099Z,57856.00
2019-06-07T09:55:24.311Z,23360.00
2019-06-07T09:56:17.224Z,21920.00
2019-06-07T09:57:17.700Z,43296.00
2019-06-07T09:58:51.005Z,73760.00
2019-06-07T09:59:17.178Z,91264.00
2019-06-07T10:00:40.080Z,91552.00
2019-06-07T10:01:17.174Z,88864.00
2019-06-07T10:02:16.160Z,72992.00
2019-06-07T10:03:21.329Z,44128.00
2019-06-07T10:04:30.811Z,63648.00
2019-06-07T10:05:17.125Z,89248.00
2019-06-07T10:06:16.119Z,89952.00
2019-06-07T10:07:30.762Z,68832.00
2019-06-07T10:09:26.142Z,28704.00
2019-06-07T10:11:17.081Z,24896.00
2019-06-07T10:12:16.052Z,63584.00
2019-06-07T10:13:16.035Z,90048.00
2019-06-07T10:14:16.045Z,91552.00
2019-06-07T10:15:16.022Z,91776.00
2019-06-07T10:16:16.047Z,88544.00
2019-06-07T10:17:16.018Z,88448.00
2019-06-07T10:18:16.001Z,88192.00
2019-06-07T10:19:16.013Z,89536.00
2019-06-07T10:20:15.973Z,85632.00
2019-06-07T10:21:15.958Z,83616.00
2019-06-07T10:22:15.972Z,85792.00
2019-06-07T10:23:15.931Z,86400.00
2019-06-07T10:24:15.927Z,90208.00
2019-06-07T10:25:15.912Z,92096.00
2019-06-07T10:26:15.903Z,92512.00
2019-06-07T10:27:15.905Z,92512.00
2019-06-07T10:28:15.881Z,93472.00
2019-06-07T10:29:15.874Z,93952.00
2019-06-07T10:30:15.868Z,92288.00
2019-06-07T10:31:15.849Z,91072.00
2019-06-07T10:32:15.850Z,90112.00
2019-06-07T10:33:15.828Z,89216.00
2019-06-07T10:34:15.825Z,93632.00
2019-06-07T10:35:16.649Z,93632.00
2019-06-07T10:36:15.807Z,96384.00
2019-06-07T10:37:16.045Z,94496.00
2019-06-07T10:38:15.782Z,95648.00
2019-06-07T10:39:15.775Z,94784.00
2019-06-07T10:40:15.757Z,95424.00
2019-06-07T10:41:15.756Z,96448.00
2019-06-07T10:42:15.757Z,96576.00
2019-06-07T10:43:15.744Z,96640.00
2019-06-07T10:44:15.733Z,99264.00
2019-06-07T10:45:15.711Z,97920.00
2019-06-07T10:46:15.721Z,95936.00
2019-06-07T10:47:15.705Z,94464.00
2019-06-07T10:48:15.689Z,95392.00
2019-06-07T10:49:15.681Z,96480.00
2019-06-07T10:50:15.666Z,99264.00
2019-06-07T10:51:15.654Z,98304.00
2019-06-07T10:52:15.721Z,93984.00
2019-06-07T10:53:15.633Z,95136.00
2019-06-07T10:54:25.831Z,94816.00
2019-06-07T10:55:16.614Z,95136.00
2019-06-07T10:56:15.601Z,98368.00
2019-06-07T10:57:16.351Z,100992.00
2019-06-07T10:58:15.590Z,97376.00
2019-06-07T10:59:15.585Z,96096.00
2019-06-07T11:00:15.564Z,91328.00
2019-06-07T11:01:15.571Z,94848.00
2019-06-07T11:02:15.565Z,96032.00
2019-06-07T11:03:15.539Z,92128.00
2019-06-07T11:04:15.532Z,93504.00
2019-06-07T11:05:15.516Z,90368.00
2019-06-07T11:06:15.505Z,91424.00
2019-06-07T11:07:15.507Z,96320.00
2019-06-07T11:08:15.487Z,101088.00
2019-06-07T11:09:15.474Z,102016.00
2019-06-07T11:10:19.392Z,98624.00
2019-06-07T11:11:15.453Z,99040.00
2019-06-07T11:12:15.520Z,96224.00
2019-06-07T11:13:15.441Z,97632.00
2019-06-07T11:14:15.429Z,96544.00
2019-06-07T11:15:15.418Z,100704.00
2019-06-07T11:16:15.856Z,99776.00
2019-06-07T11:17:15.887Z,101984.00
2019-06-07T11:18:15.390Z,102400.00
2019-06-07T11:19:17.756Z,101600.00
2019-06-07T11:20:15.368Z,100256.00
2019-06-07T11:21:15.361Z,99360.00
2019-06-07T11:22:15.363Z,98848.00
2019-06-07T11:23:15.344Z,99584.00
2019-06-07T11:24:18.658Z,97312.00
2019-06-07T11:25:16.320Z,99072.00
2019-06-07T11:26:15.316Z,97376.00
2019-06-07T11:27:16.354Z,96992.00
2019-06-07T11:28:15.289Z,97792.00
2019-06-07T11:29:15.280Z,98944.00
2019-06-07T11:30:15.274Z,101600.00
2019-06-07T11:31:15.285Z,93568.00
2019-06-07T11:32:15.272Z,99872.00
2019-06-07T11:33:16.501Z,100896.00
2019-06-07T11:34:15.231Z,104416.00
2019-06-07T11:35:15.598Z,102272.00
2019-06-07T11:36:15.437Z,103072.00
2019-06-07T11:37:16.169Z,103680.00
2019-06-07T11:38:15.194Z,102592.00
2019-06-07T11:39:15.287Z,103744.00
2019-06-07T11:40:30.224Z,99200.00
2019-06-07T11:41:16.166Z,99712.00
2019-06-07T11:42:15.170Z,101248.00
2019-06-07T11:43:15.145Z,102272.00
2019-06-07T11:44:15.139Z,104160.00
2019-06-07T11:45:15.520Z,104704.00
2019-06-07T11:46:15.269Z,105824.00
2019-06-07T11:47:15.298Z,106624.00
2019-06-07T11:48:15.536Z,107360.00
2019-06-07T11:49:20.370Z,107264.00
2019-06-07T11:50:16.088Z,104032.00
2019-06-07T11:51:15.081Z,105856.00
2019-06-07T11:52:15.814Z,100544.00
2019-06-07T11:53:15.065Z,100224.00
2019-06-07T11:54:16.245Z,99648.00
2019-06-07T11:55:15.789Z,99968.00
2019-06-07T11:56:16.033Z,102272.00
2019-06-07T11:57:15.212Z,103296.00
2019-06-07T11:58:18.991Z,71904.00
2019-06-07T11:59:17.340Z,106944.00
2019-06-07T12:00:16.445Z,112992.00
2019-06-07T12:01:16.749Z,108480.00
2019-06-07T12:02:15.499Z,103808.00
2019-06-07T12:03:15.842Z,105312.00
2019-06-07T12:04:31.092Z,105568.00
2019-06-07T12:05:18.394Z,104256.00
2019-06-07T12:06:16.269Z,106976.00
2019-06-07T12:07:15.812Z,106912.00
2019-06-07T12:08:15.879Z,108896.00
2019-06-07T12:09:16.664Z,105024.00
2019-06-07T12:10:19.117Z,100160.00
2019-06-07T12:11:16.501Z,94880.00
2019-06-07T12:12:14.881Z,95616.00
2019-06-07T12:13:15.563Z,97408.00
2019-06-07T12:14:14.868Z,98656.00
2019-06-07T12:15:15.108Z,102720.00
2019-06-07T12:16:15.419Z,102752.00
2019-06-07T12:17:15.458Z,102976.00
2019-06-07T12:18:15.188Z,102656.00
2019-06-07T12:19:15.527Z,103872.00
2019-06-07T12:20:16.737Z,101696.00